Portada
METAR-TAF:

METAR-TAF

Aeroports :

Amman, Jordània

latitud: 31-59N, longitud: 035-59E, altitud: 767 m

Observació

L'informe es va fer fa 29 minuts, a les 05:00 UTC
Vent 2 kt del Est
Temperatura 24°C
Humitat 69%
Pressió 1011 hPa
Visibilitat: 4000 m
fum

METAR: OJAM 170500Z 08002KT 4000 FU NSC 24/18 Q1011 NOSIG

Hora: 08:29 (05:29 UTC)

Pronòstic

L'informe es va fer fa 6 hores i 29 minuts, a les 23:00 UTC
Pronòstic vàlid del 17 a les 00 UTC al 18 a les 06 UTC
Vent 8 kt del Oest
Visibilitat: 5000 m
calitja

TAF: OJAM 162300Z 1700/1806 28008KT 5000 HZ NSC

Observacions i pronòstics meteorològics de més de 4000 aeroports (METAR i TAF).

Les estacions disponibles són els punts grocs i vermells al mapa.

Posi el ratolí al punt desitjat per veure el nom de l'estació.

Feu clic per veure les observacions i els pronòstics meteorològics.

Per canviar el mapa: feu clic els botons verds amb una creu de color negre per apropar; al botó verd amb un guió per allunyar la imatge; o en les fletxes verdes per a mapes adjacents.


METAR-TAF: